Time;durP1;ratioP1;P1;durP2;ratioP2;P2;SDS_P1;SDS_P2;PMS_P1;PMS_P2;Temp;Humidity;BMP_temperature;BMP_pressure;BME280_temperature;BME280_humidity;BME280_pressure;Samples;Min_cycle;Max_cycle;Signal;HPM_P1;HPM_P2
2022/02/06 20:04:42;;;;;;;;;4.00;2.75;;;;;10.40;92.98;100329.50;4919328;28;45464;-65
2022/02/06 20:07:09;;;;;;;;;3.50;3.00;;;;;10.39;92.27;100348.81;4921494;28;45359;-64
2022/02/06 20:09:41;;;;;;;;;6.00;3.00;;;;;10.39;91.71;100346.19;4919434;28;45413;-66
2022/02/06 20:12:08;;;;;;;;;5.00;4.00;;;;;10.38;91.75;100347.09;4919084;28;45448;-68
2022/02/06 20:14:33;;;;;;;;;1.00;0.00;;;;;10.38;91.33;100345.31;4918940;28;45388;-69
2022/02/06 20:16:58;;;;;;;;;6.75;5.25;;;;;10.40;90.95;100341.78;4918702;28;45430;-68
2022/02/06 20:19:24;;;;;;;;;8.00;6.00;;;;;10.41;90.40;100351.38;4902621;28;45532;-67
2022/02/06 20:21:50;;;;;;;;;4.00;3.00;;;;;10.40;90.53;100342.66;4905664;28;45340;-72
2022/02/06 20:24:16;;;;;;;;;3.00;1.75;;;;;10.46;89.58;100339.75;4919878;28;46361;-67
2022/02/06 20:26:42;;;;;;;;;9.25;9.25;;;;;10.49;89.74;100346.66;4918925;28;45492;-63
2022/02/06 20:29:08;;;;;;;;;4.25;4.25;;;;;10.50;89.29;100358.88;4921898;28;45200;-66
2022/02/06 20:31:33;;;;;;;;;3.50;2.00;;;;;10.52;88.56;100357.03;4920934;28;45614;-67
2022/02/06 20:34:04;;;;;;;;;3.50;2.25;;;;;10.52;88.94;100373.69;4920504;28;45585;-69
2022/02/06 20:36:30;;;;;;;;;5.50;3.50;;;;;10.54;88.42;100378.03;4922512;28;45386;-68
2022/02/06 20:38:55;;;;;;;;;3.00;1.50;;;;;10.56;88.35;100376.19;4915693;28;45546;-72
2022/02/06 20:41:21;;;;;;;;;1.00;1.00;;;;;10.56;88.41;100391.97;4917189;28;45228;-62
2022/02/06 20:43:47;;;;;;;;;6.25;2.25;;;;;10.56;88.36;100397.22;4921604;28;46207;-67
2022/02/06 20:46:14;;;;;;;;;0.50;0.50;;;;;10.54;88.01;100389.38;4923724;28;45347;-68
2022/02/06 20:48:41;;;;;;;;;3.25;3.25;;;;;10.58;87.69;100383.06;4923539;28;45179;-62
2022/02/06 20:51:07;;;;;;;;;2.25;1.50;;;;;10.53;86.22;100379.78;4920125;28;45326;-65
2022/02/06 20:53:36;;;;;;;;;3.00;2.25;;;;;10.62;86.16;100403.09;4922525;28;45468;-63
2022/02/06 20:56:05;;;;;;;;;0.00;0.00;;;;;10.64;84.78;100406.50;4919278;28;45473;-67
2022/02/06 20:58:32;;;;;;;;;2.75;1.25;;;;;10.66;83.99;100399.41;4918573;28;45493;-69
2022/02/06 21:00:57;;;;;;;;;1.25;1.25;;;;;10.66;83.23;100414.31;4919543;28;45424;-69
2022/02/06 21:03:23;;;;;;;;;1.50;1.00;;;;;10.68;82.54;100401.09;4919528;28;45997;-63
2022/02/06 21:05:49;;;;;;;;;2.25;1.25;;;;;10.68;83.06;100401.09;4922313;28;45296;-65
2022/02/06 21:08:15;;;;;;;;;2.50;1.75;;;;;10.68;82.18;100399.31;4919673;28;45409;-67
2022/02/06 21:10:40;;;;;;;;;0.50;0.50;;;;;10.66;81.15;100391.50;4918798;28;45319;-65
2022/02/06 21:13:05;;;;;;;;;1.50;1.50;;;;;10.67;81.21;100384.47;4919077;28;45893;-67
2022/02/06 21:15:31;;;;;;;;;1.75;1.75;;;;;10.72;81.02;100398.25;4918551;28;45398;-68
2022/02/06 21:17:58;;;;;;;;;4.50;4.00;;;;;10.75;81.28;100423.59;4918638;28;45317;-65
2022/02/06 21:20:23;;;;;;;;;2.75;2.25;;;;;10.75;80.05;100429.69;4918989;28;45592;-64
2022/02/06 21:22:49;;;;;;;;;4.75;2.50;;;;;10.76;80.43;100435.81;4919580;28;46215;-67
2022/02/06 21:25:14;;;;;;;;;1.50;0.50;;;;;10.74;98.86;100461.34;4917408;28;45300;-70
2022/02/06 21:27:39;;;;;;;;;10.50;5.75;;;;;10.42;100.00;100466.16;4919029;28;45479;-72
2022/02/06 21:30:05;;;;;;;;;1.25;0.00;;;;;9.79;100.00;100473.84;4920069;28;45318;-72
2022/02/06 21:32:31;;;;;;;;;2.00;2.00;;;;;9.31;100.00;100478.28;4919618;28;48234;-70
2022/02/06 21:34:56;;;;;;;;;2.50;2.25;;;;;9.00;100.00;100505.59;4914007;28;45696;-69
2022/02/06 21:37:21;;;;;;;;;12.00;4.00;;;;;8.80;100.00;100505.41;4918532;28;45413;-71
2022/02/06 21:39:47;;;;;;;;;5.25;3.00;;;;;8.66;100.00;100495.41;4919043;28;45393;-70
2022/02/06 21:42:13;;;;;;;;;3.00;2.00;;;;;8.54;100.00;100505.41;4919881;28;49070;-70
2022/02/06 21:44:38;;;;;;;;;6.75;6.00;;;;;8.44;100.00;100527.53;4919256;28;45459;-69
2022/02/06 21:47:05;;;;;;;;;7.00;5.00;;;;;8.36;100.00;100505.94;4922535;28;45342;-72
2022/02/06 21:49:30;;;;;;;;;6.00;5.25;;;;;8.33;100.00;100526.09;4923651;28;45323;-70
2022/02/06 21:51:55;;;;;;;;;2.00;0.25;;;;;8.31;100.00;100524.44;4923584;28;45709;-69
2022/02/06 21:54:21;;;;;;;;;2.25;2.25;;;;;8.25;100.00;100525.50;4921979;28;45355;-69
2022/02/06 21:56:46;;;;;;;;;4.00;3.00;;;;;8.20;100.00;100535.25;4921937;28;45284;-70
2022/02/06 21:59:13;;;;;;;;;4.50;3.25;;;;;8.16;100.00;100538.88;4915047;28;45597;-69
2022/02/06 22:01:40;;;;;;;;;5.00;3.25;;;;;8.12;100.00;100551.22;4921359;28;46769;-67
2022/02/06 22:04:05;;;;;;;;;2.75;2.75;;;;;8.05;100.00;100557.56;4921915;28;46025;-69
2022/02/06 22:06:33;;;;;;;;;4.25;2.75;;;;;8.00;100.00;100575.19;4922746;28;45374;-71
2022/02/06 22:09:07;;;;;;;;;5.00;4.00;;;;;7.93;100.00;100582.34;4925546;28;45440;-74
2022/02/06 22:23:12;;;;;;;;;1.00;0.00;;;;;7.98;96.51;100616.28;4922471;28;45417;-70
2022/02/06 22:28:54;;;;;;;;;5.25;2.50;;;;;8.02;96.63;100624.00;4922175;28;45285;-71
2022/02/06 22:30:39;;;;;;;;;3.00;1.00;;;;;8.12;94.62;100644.69;4922571;28;45474;-69
2022/02/06 22:33:04;;;;;;;;;1.00;1.00;;;;;8.17;93.27;100640.16;4921731;28;45994;-67
2022/02/06 22:35:30;;;;;;;;;3.75;2.00;;;;;8.20;92.50;100642.69;4922104;28;45440;-67
2022/02/06 22:37:55;;;;;;;;;1.50;1.50;;;;;8.23;91.01;100647.84;4923446;28;45561;-68
2022/02/06 22:40:21;;;;;;;;;2.00;1.50;;;;;8.27;90.80;100654.72;4921807;28;45735;-68
2022/02/06 22:42:49;;;;;;;;;0.75;0.50;;;;;8.30;90.27;100653.78;4920943;28;46148;-69
2022/02/06 22:45:14;;;;;;;;;6.00;2.00;;;;;8.33;89.95;100670.25;4921435;28;45411;-70
2022/02/06 22:47:40;;;;;;;;;3.00;1.25;;;;;8.35;88.75;100678.09;4919170;28;45310;-70
2022/02/06 22:50:06;;;;;;;;;5.25;2.00;;;;;8.42;88.66;100692.72;4920640;28;45550;-65
2022/02/06 22:52:32;;;;;;;;;4.25;2.00;;;;;8.46;87.85;100690.84;4920955;28;45373;-67
2022/02/06 22:54:57;;;;;;;;;3.00;2.00;;;;;8.48;87.86;100687.31;4920850;28;45510;-69
2022/02/06 22:57:22;;;;;;;;;3.25;1.50;;;;;8.52;87.55;100688.13;4920715;28;45460;-71
2022/02/06 22:59:48;;;;;;;;;3.25;2.00;;;;;8.52;87.72;100682.88;4922135;28;45474;-63
2022/02/06 23:02:13;;;;;;;;;3.50;1.50;;;;;8.57;87.80;100682.72;4928268;28;45682;-66
2022/02/06 23:04:39;;;;;;;;;4.50;1.75;;;;;8.55;86.60;100680.16;4924389;28;45426;-67
2022/02/06 23:07:05;;;;;;;;;6.50;1.25;;;;;8.53;86.30;100670.59;4921640;28;45493;-65
2022/02/06 23:09:30;;;;;;;;;2.75;2.00;;;;;8.56;87.32;100694.97;4921834;28;45358;-65
2022/02/06 23:11:56;;;;;;;;;3.00;1.75;;;;;8.55;86.95;100703.75;4924897;28;46041;-67
2022/02/06 23:14:22;;;;;;;;;2.00;2.00;;;;;8.49;86.52;100693.44;4919311;28;45837;-70
2022/02/06 23:16:48;;;;;;;;;4.50;2.00;;;;;8.54;86.16;100709.03;4921667;28;45389;-71
2022/02/06 23:19:13;;;;;;;;;2.00;2.00;;;;;8.53;86.80;100721.28;4923308;28;45442;-64
2022/02/06 23:21:39;;;;;;;;;3.25;1.00;;;;;8.47;86.07;100705.69;4922217;28;48313;-68
2022/02/06 23:24:05;;;;;;;;;2.75;1.00;;;;;8.45;86.70;100737.19;4921509;28;45337;-67
2022/02/06 23:26:30;;;;;;;;;6.00;1.00;;;;;8.38;86.26;100722.56;4922058;28;45291;-67
2022/02/06 23:28:56;;;;;;;;;2.75;1.00;;;;;8.37;86.20;100733.94;4922984;28;45373;-66
2022/02/06 23:31:23;;;;;;;;;3.75;1.00;;;;;8.38;85.77;100743.53;4922633;28;46404;-67
2022/02/06 23:33:48;;;;;;;;;4.50;3.00;;;;;8.34;85.70;100749.75;4919854;28;45469;-66
2022/02/06 23:36:14;;;;;;;;;1.00;1.00;;;;;8.32;85.48;100768.13;4921113;28;45311;-66
2022/02/06 23:38:40;;;;;;;;;2.75;2.00;;;;;8.27;85.35;100775.25;4920093;28;45504;-66
2022/02/06 23:41:06;;;;;;;;;4.00;1.75;;;;;8.27;85.02;100769.19;4920115;28;46999;-66
2022/02/06 23:43:32;;;;;;;;;3.50;1.00;;;;;8.23;84.90;100760.53;4920282;28;45395;-65
2022/02/06 23:46:06;;;;;;;;;2.25;0.25;;;;;8.22;84.06;100778.94;4921650;28;45433;-65
2022/02/06 23:48:32;;;;;;;;;3.50;0.50;;;;;8.18;83.24;100783.38;4920737;28;45383;-66
2022/02/06 23:51:05;;;;;;;;;5.75;1.00;;;;;8.16;83.55;100779.94;4919847;28;46358;-66
2022/02/06 23:54:21;;;;;;;;;1.25;1.25;;;;;8.14;83.57;100789.59;4920660;28;45352;-63
2022/02/06 23:59:04;;;;;;;;;4.00;1.00;;;;;8.12;82.84;100804.50;4925190;28;45339;-65
